createdAt,value
2022-10-06T00:00:45.662Z,15.21
2022-10-06T00:03:47.327Z,15.19
2022-10-06T00:06:48.817Z,15.17
2022-10-06T00:09:50.358Z,15.14
2022-10-06T00:12:52.704Z,15.26
2022-10-06T00:15:54.260Z,15.25
2022-10-06T00:18:56.880Z,15.19
2022-10-06T00:21:58.367Z,15.16
2022-10-06T00:24:59.796Z,15.15
2022-10-06T00:28:01.938Z,15.09
2022-10-06T00:31:03.462Z,14.98
2022-10-06T00:34:05.269Z,15.12
2022-10-06T00:37:06.756Z,15.07
2022-10-06T00:40:09.829Z,14.98
2022-10-06T00:43:36.936Z,15.06
2022-10-06T00:46:43.225Z,14.89
2022-10-06T00:49:45.829Z,14.82
2022-10-06T00:52:47.740Z,15.01
2022-10-06T00:55:49.790Z,14.92
2022-10-06T00:58:51.907Z,14.96
2022-10-06T01:02:01.518Z,14.71
2022-10-06T01:05:05.727Z,14.75
2022-10-06T01:08:07.697Z,14.44
2022-10-06T01:11:14.293Z,14.66
2022-10-06T01:14:17.408Z,14.50
2022-10-06T01:17:24.835Z,14.55
2022-10-06T01:20:26.532Z,14.50
2022-10-06T01:23:31.681Z,14.44
2022-10-06T01:26:36.111Z,14.24
2022-10-06T01:29:38.247Z,14.37
2022-10-06T01:32:40.629Z,14.24
2022-10-06T01:35:42.522Z,14.25
2022-10-06T01:38:44.151Z,14.39
2022-10-06T01:41:47.794Z,14.42
2022-10-06T01:44:49.952Z,14.25
2022-10-06T01:47:51.705Z,14.10
2022-10-06T01:50:54.032Z,14.07
2022-10-06T01:53:55.491Z,13.90
2022-10-06T01:56:56.973Z,13.94
2022-10-06T01:59:58.799Z,14.03
2022-10-06T02:03:00.287Z,14.01
2022-10-06T02:06:02.341Z,14.12
2022-10-06T02:09:03.794Z,14.10
2022-10-06T02:12:05.331Z,14.04
2022-10-06T02:15:08.122Z,13.93
2022-10-06T02:18:09.691Z,14.00
2022-10-06T02:21:17.214Z,14.11
2022-10-06T02:24:18.716Z,14.03
2022-10-06T02:27:20.745Z,14.02
2022-10-06T02:30:22.544Z,14.04
2022-10-06T02:33:24.286Z,13.91
2022-10-06T02:36:26.605Z,13.95
2022-10-06T02:39:28.449Z,13.86
2022-10-06T02:42:31.478Z,13.93
2022-10-06T02:45:34.459Z,13.87
2022-10-06T02:48:36.073Z,13.98
2022-10-06T02:51:39.315Z,14.08
2022-10-06T02:54:41.256Z,14.00
2022-10-06T02:57:42.719Z,14.06
2022-10-06T03:00:44.351Z,14.15
2022-10-06T03:03:49.362Z,14.35
2022-10-06T03:06:52.628Z,14.50
2022-10-06T03:09:57.074Z,14.56
2022-10-06T03:13:00.068Z,14.52
2022-10-06T03:16:03.565Z,14.52
2022-10-06T03:19:06.508Z,14.66
2022-10-06T03:22:07.963Z,14.82
2022-10-06T03:25:16.264Z,14.72
2022-10-06T03:28:17.803Z,14.92
2022-10-06T03:31:20.096Z,14.87
2022-10-06T03:34:22.334Z,14.99
2022-10-06T03:37:24.059Z,15.03
2022-10-06T03:40:26.099Z,15.13
2022-10-06T03:43:27.698Z,15.09
2022-10-06T03:46:32.143Z,15.14
2022-10-06T03:49:33.848Z,15.09
2022-10-06T03:52:35.866Z,15.07
2022-10-06T03:55:37.368Z,14.88
2022-10-06T03:58:41.549Z,14.79
2022-10-06T04:01:45.811Z,14.98
2022-10-06T04:04:50.079Z,14.96
2022-10-06T04:07:52.197Z,14.84
2022-10-06T04:10:53.614Z,14.87
2022-10-06T04:14:00.539Z,14.93
2022-10-06T04:17:03.064Z,15.03
2022-10-06T04:20:10.653Z,15.02
2022-10-06T04:23:12.405Z,15.16
2022-10-06T04:26:17.771Z,15.17
2022-10-06T04:29:23.572Z,15.16
2022-10-06T04:32:29.710Z,15.12
2022-10-06T04:35:31.453Z,15.16
2022-10-06T04:38:34.431Z,15.31
2022-10-06T04:41:37.878Z,15.28
2022-10-06T04:44:39.355Z,15.44
2022-10-06T04:47:41.304Z,15.46
2022-10-06T04:50:43.495Z,15.68
2022-10-06T04:53:47.411Z,15.78
2022-10-06T04:56:50.161Z,15.75
2022-10-06T05:00:14.889Z,15.67
2022-10-06T05:03:19.399Z,15.54
2022-10-06T05:06:25.001Z,15.66
2022-10-06T05:09:26.919Z,15.57
2022-10-06T05:12:31.031Z,15.75
2022-10-06T05:15:33.007Z,15.87
2022-10-06T05:18:35.890Z,15.55
2022-10-06T05:21:38.690Z,15.76
2022-10-06T05:24:41.915Z,15.77
2022-10-06T05:27:43.371Z,15.75
2022-10-06T05:31:02.653Z,15.73
2022-10-06T05:34:05.190Z,15.80
2022-10-06T05:37:07.044Z,15.86
2022-10-06T05:40:09.897Z,15.69
2022-10-06T05:43:11.426Z,15.54
2022-10-06T05:46:23.655Z,15.67
2022-10-06T05:49:25.953Z,15.72
2022-10-06T05:52:33.223Z,15.55
2022-10-06T05:55:34.908Z,15.64
2022-10-06T05:58:38.498Z,15.83
2022-10-06T06:01:41.705Z,15.94
2022-10-06T06:04:53.345Z,15.96
2022-10-06T06:07:55.076Z,16.06
2022-10-06T06:11:05.119Z,16.01
2022-10-06T06:14:09.304Z,15.97
2022-10-06T06:17:11.464Z,16.03
2022-10-06T06:20:13.300Z,15.88
2022-10-06T06:23:15.173Z,15.86
2022-10-06T06:26:20.064Z,15.94
2022-10-06T06:29:23.988Z,15.99
2022-10-06T06:32:26.849Z,16.02
2022-10-06T06:35:28.589Z,15.98
2022-10-06T06:38:32.158Z,16.05
2022-10-06T06:41:40.427Z,15.99
2022-10-06T06:44:54.199Z,15.94
2022-10-06T06:48:24.606Z,15.98
2022-10-06T06:51:26.026Z,16.08
2022-10-06T06:54:27.626Z,16.00
2022-10-06T06:57:35.422Z,16.03
2022-10-06T07:00:38.562Z,16.04
2022-10-06T07:03:57.133Z,16.02
2022-10-06T07:06:59.672Z,15.99
2022-10-06T07:10:04.822Z,16.00
2022-10-06T07:13:08.445Z,15.96
2022-10-06T07:16:31.028Z,16.08
2022-10-06T07:19:50.690Z,16.01
2022-10-06T07:23:12.242Z,16.12
2022-10-06T07:26:14.139Z,16.27
2022-10-06T07:29:16.857Z,16.31
2022-10-06T07:32:21.083Z,16.39
2022-10-06T07:35:23.807Z,16.47
2022-10-06T07:38:26.089Z,16.61
2022-10-06T07:41:30.462Z,16.67
2022-10-06T07:44:35.080Z,16.73
2022-10-06T07:47:39.437Z,16.82
2022-10-06T07:50:43.335Z,16.86
2022-10-06T07:53:46.742Z,16.96
2022-10-06T07:57:24.813Z,17.07
2022-10-06T08:00:27.089Z,17.11
2022-10-06T08:03:28.601Z,17.10
2022-10-06T08:06:30.021Z,17.15
2022-10-06T08:09:31.672Z,17.22
2022-10-06T08:12:33.357Z,17.23
2022-10-06T08:15:35.167Z,17.09
2022-10-06T08:18:52.813Z,17.29
2022-10-06T08:21:54.221Z,17.58
2022-10-06T08:25:05.757Z,17.75
2022-10-06T08:28:09.425Z,17.61
2022-10-06T08:31:11.559Z,17.23
2022-10-06T08:34:13.135Z,16.96
2022-10-06T08:37:20.088Z,17.01
2022-10-06T08:40:22.415Z,16.86
2022-10-06T08:43:25.644Z,16.92
2022-10-06T08:46:38.853Z,16.90
2022-10-06T08:49:47.145Z,17.07
2022-10-06T08:53:06.810Z,17.31
2022-10-06T08:56:18.525Z,17.40
2022-10-06T08:59:20.741Z,17.54
2022-10-06T09:02:32.378Z,17.59
2022-10-06T09:05:34.888Z,17.40
2022-10-06T09:09:01.575Z,17.18
2022-10-06T09:12:17.028Z,17.29
2022-10-06T09:15:35.094Z,17.29
2022-10-06T09:19:33.714Z,17.19
2022-10-06T09:22:04.564Z,17.49
2022-10-06T09:25:17.124Z,17.79
2022-10-06T09:28:18.799Z,18.03
2022-10-06T09:31:26.312Z,18.01
2022-10-06T09:34:45.567Z,17.78
2022-10-06T09:38:08.751Z,18.13
2022-10-06T09:41:13.245Z,18.23
2022-10-06T09:44:44.971Z,18.35
2022-10-06T09:47:46.565Z,18.92
2022-10-06T09:51:13.381Z,18.32
2022-10-06T09:54:16.812Z,18.09
2022-10-06T09:57:26.451Z,17.54
2022-10-06T10:00:35.779Z,17.61
2022-10-06T10:04:08.425Z,17.87
2022-10-06T10:07:26.135Z,18.07
2022-10-06T10:10:27.538Z,17.84
2022-10-06T10:13:42.267Z,17.94
2022-10-06T10:16:46.853Z,18.10
2022-10-06T10:19:54.052Z,18.36
2022-10-06T10:22:59.732Z,18.39
2022-10-06T10:26:20.891Z,18.46
2022-10-06T10:29:22.318Z,18.50
2022-10-06T10:32:29.783Z,18.36
2022-10-06T10:35:35.840Z,18.29
2022-10-06T10:38:40.985Z,18.06
2022-10-06T10:41:48.497Z,18.01
2022-10-06T10:44:57.097Z,18.13
2022-10-06T10:48:00.989Z,18.09
2022-10-06T10:51:14.724Z,17.99
2022-10-06T10:54:25.113Z,17.77
2022-10-06T10:57:35.009Z,18.07
2022-10-06T11:00:41.383Z,18.04
2022-10-06T11:03:43.480Z,18.16
2022-10-06T11:06:54.154Z,18.16
2022-10-06T11:10:17.402Z,18.16
2022-10-06T11:13:44.344Z,18.13
2022-10-06T11:17:01.340Z,18.24
2022-10-06T11:20:15.500Z,18.23
2022-10-06T11:23:43.587Z,18.20
2022-10-06T11:27:15.438Z,18.24
2022-10-06T11:30:26.292Z,18.23
2022-10-06T11:33:36.723Z,18.45
2022-10-06T11:37:00.661Z,18.32
2022-10-06T11:40:23.875Z,18.13
2022-10-06T11:43:47.293Z,18.21
2022-10-06T11:46:57.491Z,18.22
2022-10-06T11:49:58.905Z,18.11
2022-10-06T11:53:00.860Z,18.23
2022-10-06T11:56:17.490Z,18.25
2022-10-06T11:59:27.441Z,18.42
2022-10-06T12:02:36.557Z,18.44
2022-10-06T12:05:55.918Z,18.42
2022-10-06T12:08:58.446Z,18.37
2022-10-06T12:12:15.122Z,18.28
2022-10-06T12:17:05.496Z,18.33
2022-10-06T12:19:19.249Z,18.48
2022-10-06T12:22:23.707Z,18.14
2022-10-06T12:25:56.912Z,18.02
2022-10-06T12:29:16.785Z,18.12
2022-10-06T12:32:37.072Z,18.38
2022-10-06T12:35:40.070Z,18.26
2022-10-06T12:38:44.383Z,18.35
2022-10-06T12:42:22.336Z,18.47
2022-10-06T12:45:23.904Z,18.26
2022-10-06T12:48:40.493Z,18.44
2022-10-06T12:51:44.415Z,18.07
2022-10-06T12:55:14.588Z,18.35
2022-10-06T12:58:18.679Z,18.33
2022-10-06T13:01:22.485Z,18.33
2022-10-06T13:04:31.250Z,18.76
2022-10-06T13:07:33.950Z,18.75
2022-10-06T13:10:35.537Z,18.58
2022-10-06T13:13:38.427Z,18.51
2022-10-06T13:16:43.030Z,18.65
2022-10-06T13:19:44.674Z,18.51
2022-10-06T13:22:46.169Z,18.48
2022-10-06T13:25:50.326Z,18.69
2022-10-06T13:28:54.465Z,18.41
2022-10-06T13:31:56.651Z,18.44
2022-10-06T13:34:58.485Z,18.33
2022-10-06T13:38:02.558Z,18.41
2022-10-06T13:41:13.523Z,18.50
2022-10-06T13:44:34.790Z,18.75
2022-10-06T13:47:36.329Z,18.85
2022-10-06T13:50:39.268Z,18.77
2022-10-06T13:53:46.516Z,18.87
2022-10-06T13:56:47.956Z,18.71
2022-10-06T14:00:02.497Z,18.77
2022-10-06T14:03:07.621Z,18.82
2022-10-06T14:06:15.182Z,19.14
2022-10-06T14:09:22.610Z,19.12
2022-10-06T14:12:24.245Z,18.66
2022-10-06T14:15:28.747Z,18.75
2022-10-06T14:18:40.150Z,18.66
2022-10-06T14:21:44.921Z,18.86
2022-10-06T14:24:51.220Z,18.88
2022-10-06T14:27:52.603Z,18.83
2022-10-06T14:30:56.349Z,18.79
2022-10-06T14:33:57.942Z,18.70
2022-10-06T14:36:59.347Z,18.68
2022-10-06T14:40:01.279Z,18.71
2022-10-06T14:43:03.166Z,18.79
2022-10-06T14:46:06.425Z,18.75
2022-10-06T14:49:10.654Z,18.82
2022-10-06T14:52:12.720Z,18.67
2022-10-06T14:55:14.453Z,18.69
2022-10-06T14:58:15.924Z,18.71
2022-10-06T15:01:19.935Z,18.71
2022-10-06T15:04:25.233Z,18.77
2022-10-06T15:07:45.134Z,18.72
2022-10-06T15:10:52.139Z,18.49
2022-10-06T15:13:55.591Z,18.48
2022-10-06T15:16:59.940Z,18.71
2022-10-06T15:20:01.512Z,18.71
2022-10-06T15:23:02.944Z,18.64
2022-10-06T15:26:24.164Z,18.59
2022-10-06T15:29:26.509Z,18.59
2022-10-06T15:32:28.063Z,18.45
2022-10-06T15:35:32.355Z,18.45
2022-10-06T15:38:36.219Z,18.49
2022-10-06T15:41:39.648Z,18.55
2022-10-06T15:44:41.212Z,18.48
2022-10-06T15:47:42.661Z,18.44
2022-10-06T15:50:44.143Z,18.38
2022-10-06T15:53:46.341Z,18.39
2022-10-06T15:56:49.358Z,18.38
2022-10-06T15:59:51.678Z,18.23
2022-10-06T16:02:53.173Z,18.26
2022-10-06T16:05:59.890Z,18.26
2022-10-06T16:09:01.296Z,18.12
2022-10-06T16:12:05.391Z,18.15
2022-10-06T16:15:07.233Z,18.25
2022-10-06T16:18:08.680Z,18.14
2022-10-06T16:21:10.066Z,18.14
2022-10-06T16:24:11.521Z,17.97
2022-10-06T16:27:14.637Z,17.79
2022-10-06T16:30:16.178Z,17.73
2022-10-06T16:33:17.630Z,17.69
2022-10-06T16:36:19.970Z,17.58
2022-10-06T16:39:22.194Z,17.33
2022-10-06T16:42:24.483Z,17.19
2022-10-06T16:45:25.858Z,17.02
2022-10-06T16:48:32.700Z,16.97
2022-10-06T16:51:39.614Z,16.90
2022-10-06T16:54:41.025Z,16.84
2022-10-06T16:57:42.410Z,16.78
2022-10-06T17:00:43.827Z,16.62
2022-10-06T17:03:45.704Z,16.70
2022-10-06T17:06:52.868Z,16.90
2022-10-06T17:10:15.653Z,16.73
2022-10-06T17:13:15.714Z,16.51
2022-10-06T17:16:19.980Z,16.55
2022-10-06T17:19:23.111Z,16.57
2022-10-06T17:22:25.044Z,16.45
2022-10-06T17:25:26.470Z,16.40
2022-10-06T17:28:28.264Z,16.63
2022-10-06T17:31:35.645Z,16.48
2022-10-06T17:34:39.670Z,16.48
2022-10-06T17:37:41.208Z,16.45
2022-10-06T17:40:43.964Z,16.30
2022-10-06T17:43:48.164Z,16.52
2022-10-06T17:46:52.540Z,16.61
2022-10-06T17:49:56.644Z,16.58
2022-10-06T17:52:59.350Z,16.75
2022-10-06T17:56:08.814Z,16.77
2022-10-06T17:59:33.985Z,16.80
2022-10-06T18:02:35.995Z,16.59
2022-10-06T18:05:38.969Z,16.40
2022-10-06T18:08:42.491Z,16.36
2022-10-06T18:11:48.006Z,16.43
2022-10-06T18:14:50.337Z,16.40
2022-10-06T18:17:52.225Z,16.35
2022-10-06T18:21:01.855Z,16.43
2022-10-06T18:24:08.237Z,16.43
2022-10-06T18:27:09.911Z,16.43
2022-10-06T18:30:11.824Z,16.40
2022-10-06T18:35:57.588Z,16.34
2022-10-06T18:36:35.066Z,16.34
2022-10-06T18:39:36.444Z,16.26
2022-10-06T18:42:39.070Z,16.26
2022-10-06T18:45:59.530Z,16.23
2022-10-06T18:49:10.476Z,16.24
2022-10-06T18:52:15.023Z,16.17
2022-10-06T18:55:17.151Z,16.13
2022-10-06T18:58:18.481Z,16.22
2022-10-06T19:01:21.030Z,16.36
2022-10-06T19:04:23.829Z,16.20
2022-10-06T19:07:25.683Z,16.24
2022-10-06T19:10:27.115Z,16.22
2022-10-06T19:13:28.556Z,16.22
2022-10-06T19:16:30.629Z,16.40
2022-10-06T19:19:32.607Z,16.45
2022-10-06T19:22:34.701Z,16.46
2022-10-06T19:25:36.072Z,16.34
2022-10-06T19:28:37.693Z,16.35
2022-10-06T19:31:42.601Z,16.42
2022-10-06T19:34:44.615Z,16.42
2022-10-06T19:37:46.389Z,16.48
2022-10-06T19:40:48.414Z,16.32
2022-10-06T19:43:50.568Z,16.24
2022-10-06T19:46:52.254Z,16.19
2022-10-06T19:50:00.779Z,16.06
2022-10-06T19:53:04.640Z,15.93
2022-10-06T19:56:06.431Z,15.94
2022-10-06T19:59:11.972Z,16.18
2022-10-06T20:02:13.498Z,16.33
2022-10-06T20:05:16.350Z,16.32
2022-10-06T20:08:17.948Z,16.30
2022-10-06T20:11:22.480Z,16.10
2022-10-06T20:14:24.578Z,15.81
2022-10-06T20:17:25.982Z,15.91
2022-10-06T20:20:27.440Z,15.99
2022-10-06T20:23:29.063Z,15.96
2022-10-06T20:26:32.995Z,15.91
2022-10-06T20:29:34.543Z,15.99
2022-10-06T20:32:36.169Z,15.95
2022-10-06T20:35:37.584Z,15.84
2022-10-06T20:38:58.746Z,16.05
2022-10-06T20:42:00.392Z,16.15
2022-10-06T20:45:01.860Z,16.13
2022-10-06T20:48:03.380Z,16.07
2022-10-06T20:51:12.322Z,16.05
2022-10-06T20:54:16.145Z,15.86
2022-10-06T20:57:17.628Z,15.91
2022-10-06T21:00:19.273Z,15.73
2022-10-06T21:03:20.786Z,15.81
2022-10-06T21:06:24.086Z,15.85
2022-10-06T21:09:28.558Z,15.93
2022-10-06T21:12:30.278Z,15.88
2022-10-06T21:15:31.940Z,15.78
2022-10-06T21:18:34.210Z,15.79
2022-10-06T21:21:37.642Z,15.64
2022-10-06T21:24:39.180Z,15.75
2022-10-06T21:27:40.955Z,15.78
2022-10-06T21:30:44.254Z,15.86
2022-10-06T21:33:46.536Z,15.68
2022-10-06T21:36:48.184Z,15.68
2022-10-06T21:39:49.800Z,15.58
2022-10-06T21:42:51.325Z,15.61
2022-10-06T21:46:10.744Z,15.50
2022-10-06T21:49:17.242Z,15.41
2022-10-06T21:52:18.798Z,15.46
2022-10-06T21:55:20.376Z,15.28
2022-10-06T21:58:21.919Z,15.39
2022-10-06T22:01:26.601Z,15.13
2022-10-06T22:04:28.231Z,15.08
2022-10-06T22:07:29.886Z,15.06
2022-10-06T22:10:31.906Z,15.08
2022-10-06T22:13:33.855Z,15.03
2022-10-06T22:16:36.728Z,15.02
2022-10-06T22:19:38.390Z,15.33
2022-10-06T22:22:39.994Z,15.52
2022-10-06T22:25:41.583Z,15.35
2022-10-06T22:28:51.326Z,15.25
2022-10-06T22:31:52.954Z,15.39
2022-10-06T22:34:54.604Z,15.55
2022-10-06T22:37:56.119Z,15.59
2022-10-06T22:41:07.493Z,15.63
2022-10-06T22:44:09.099Z,15.66
2022-10-06T22:47:10.619Z,15.63
2022-10-06T22:50:12.114Z,15.58
2022-10-06T22:53:18.583Z,15.49
2022-10-06T22:56:20.583Z,15.47
2022-10-06T22:59:22.145Z,15.53
2022-10-06T23:02:23.661Z,15.38
2022-10-06T23:05:25.273Z,15.00
2022-10-06T23:08:34.033Z,14.92
2022-10-06T23:11:36.543Z,14.80
2022-10-06T23:14:38.054Z,14.82
2022-10-06T23:17:40.508Z,15.09
2022-10-06T23:20:42.094Z,15.05
2022-10-06T23:23:43.659Z,15.01
2022-10-06T23:26:45.322Z,14.89
2022-10-06T23:29:47.039Z,14.81
2022-10-06T23:32:48.665Z,15.00
2022-10-06T23:36:01.716Z,15.13
2022-10-06T23:39:03.314Z,15.23
2022-10-06T23:42:05.038Z,15.29
2022-10-06T23:45:07.749Z,15.13
2022-10-06T23:48:09.453Z,14.84
2022-10-06T23:51:15.529Z,14.85
2022-10-06T23:54:17.139Z,14.99
2022-10-06T23:57:18.657Z,15.01
